createdAt,value
2018-07-27T00:01:02.644Z,17.60
2018-07-27T00:08:30.675Z,17.50
2018-07-27T00:10:59.928Z,17.50
2018-07-27T00:13:29.096Z,17.50
2018-07-27T00:15:58.496Z,17.50
2018-07-27T00:18:27.918Z,17.50
2018-07-27T00:20:57.819Z,17.50
2018-07-27T00:23:27.070Z,17.40
2018-07-27T00:25:56.294Z,17.50
2018-07-27T00:28:25.754Z,17.50
2018-07-27T00:30:55.250Z,17.50
2018-07-27T00:33:24.481Z,17.40
2018-07-27T00:35:53.721Z,17.40
2018-07-27T00:38:23.132Z,17.40
2018-07-27T00:40:52.410Z,17.40
2018-07-27T00:43:22.349Z,17.30
2018-07-27T00:45:51.532Z,17.30
2018-07-27T00:48:20.894Z,17.30
2018-07-27T00:50:50.935Z,17.40
2018-07-27T00:53:20.144Z,17.30
2018-07-27T00:55:49.525Z,17.10
2018-07-27T00:58:19.611Z,17.00
2018-07-27T01:00:50.392Z,17.00
2018-07-27T01:03:19.650Z,17.00
2018-07-27T01:05:48.906Z,17.00
2018-07-27T01:08:18.468Z,17.00
2018-07-27T01:10:47.758Z,17.00
2018-07-27T01:13:17.009Z,17.00
2018-07-27T01:15:46.837Z,17.00
2018-07-27T01:18:17.070Z,16.90
2018-07-27T01:20:46.339Z,16.90
2018-07-27T01:23:15.537Z,16.90
2018-07-27T01:25:44.868Z,16.80
2018-07-27T01:28:14.239Z,16.60
2018-07-27T01:30:43.466Z,16.70
2018-07-27T01:33:12.693Z,16.70
2018-07-27T01:35:41.915Z,16.50
2018-07-27T01:38:12.270Z,16.60
2018-07-27T01:40:41.520Z,16.50
2018-07-27T01:43:11.125Z,16.50
2018-07-27T01:45:40.349Z,16.50
2018-07-27T01:48:09.725Z,16.50
2018-07-27T01:50:38.949Z,16.50
2018-07-27T01:53:08.140Z,16.50
2018-07-27T01:55:37.314Z,16.70
2018-07-27T01:58:07.237Z,16.70
2018-07-27T02:00:36.466Z,16.60
2018-07-27T02:03:05.844Z,16.50
2018-07-27T02:05:35.236Z,16.40
2018-07-27T02:08:05.535Z,16.30
2018-07-27T02:10:34.990Z,16.30
2018-07-27T02:13:04.296Z,16.30
2018-07-27T02:15:33.461Z,16.50
2018-07-27T02:18:03.732Z,16.30
2018-07-27T02:20:32.964Z,16.30
2018-07-27T02:23:02.704Z,16.20
2018-07-27T02:25:31.893Z,16.20
2018-07-27T02:28:03.199Z,16.10
2018-07-27T02:30:32.432Z,16.10
2018-07-27T02:33:01.675Z,16.10
2018-07-27T02:35:30.871Z,16.10
2018-07-27T02:38:01.510Z,16.00
2018-07-27T02:40:30.737Z,16.00
2018-07-27T02:42:59.937Z,16.00
2018-07-27T02:45:29.317Z,16.10
2018-07-27T02:47:58.524Z,16.10
2018-07-27T02:50:27.712Z,16.00
2018-07-27T02:52:56.968Z,16.10
2018-07-27T02:55:26.205Z,16.10
2018-07-27T02:57:55.531Z,16.10
2018-07-27T03:00:24.770Z,16.10
2018-07-27T03:02:54.047Z,16.20
2018-07-27T03:05:23.297Z,16.20
2018-07-27T03:07:53.032Z,16.30
2018-07-27T03:10:22.294Z,16.30
2018-07-27T03:12:52.334Z,16.30
2018-07-27T03:15:21.551Z,16.30
2018-07-27T03:17:51.625Z,16.40
2018-07-27T03:20:20.850Z,16.40
2018-07-27T03:22:50.030Z,16.30
2018-07-27T03:25:19.470Z,16.20
2018-07-27T03:27:49.037Z,16.10
2018-07-27T03:30:18.274Z,16.00
2018-07-27T03:32:47.505Z,16.00
2018-07-27T03:35:16.707Z,15.90
2018-07-27T03:37:45.938Z,15.80
2018-07-27T03:40:15.284Z,15.90
2018-07-27T03:42:44.506Z,15.80
2018-07-27T03:45:13.854Z,15.90
2018-07-27T03:47:43.073Z,15.90
2018-07-27T03:50:12.868Z,16.00
2018-07-27T03:52:42.106Z,16.00
2018-07-27T03:55:11.361Z,15.90
2018-07-27T03:57:40.824Z,15.80
2018-07-27T04:00:12.354Z,15.70
2018-07-27T04:02:42.027Z,15.70
2018-07-27T04:05:11.579Z,15.80
2018-07-27T04:07:40.783Z,15.70
2018-07-27T04:10:09.973Z,15.80
2018-07-27T04:12:39.211Z,15.80
2018-07-27T04:15:08.493Z,15.90
2018-07-27T04:17:37.714Z,15.90
2018-07-27T04:20:06.951Z,16.00
2018-07-27T04:22:36.179Z,16.10
2018-07-27T04:25:05.572Z,16.20
2018-07-27T04:27:34.805Z,16.30
2018-07-27T04:30:04.475Z,16.30
2018-07-27T04:32:33.721Z,16.40
2018-07-27T04:35:03.108Z,16.40
2018-07-27T04:37:32.311Z,16.40
2018-07-27T04:40:02.104Z,16.40
2018-07-27T04:42:31.338Z,16.50
2018-07-27T04:45:00.662Z,16.50
2018-07-27T04:47:29.922Z,16.50
2018-07-27T04:49:59.231Z,16.50
2018-07-27T04:52:28.878Z,16.60
2018-07-27T04:54:58.671Z,16.60
2018-07-27T04:57:28.308Z,16.70
2018-07-27T04:59:57.966Z,16.90
2018-07-27T05:02:27.252Z,16.90
2018-07-27T05:04:56.494Z,17.00
2018-07-27T05:07:26.380Z,17.10
2018-07-27T05:09:59.809Z,17.10
2018-07-27T05:12:29.012Z,17.20
2018-07-27T05:14:58.339Z,17.30
2018-07-27T05:17:27.590Z,17.40
2018-07-27T05:19:58.035Z,17.50
2018-07-27T05:22:27.260Z,17.60
2018-07-27T05:24:56.495Z,17.80
2018-07-27T05:27:25.754Z,17.90
2018-07-27T05:29:56.164Z,18.00
2018-07-27T05:32:25.395Z,18.10
2018-07-27T05:34:54.730Z,18.20
2018-07-27T05:37:25.311Z,18.30
2018-07-27T05:39:54.747Z,18.40
2018-07-27T05:42:23.990Z,18.50
2018-07-27T05:44:55.203Z,18.50
2018-07-27T05:47:24.995Z,18.60
2018-07-27T05:49:54.455Z,18.80
2018-07-27T05:52:23.665Z,18.90
2018-07-27T05:54:53.111Z,19.00
2018-07-27T05:57:22.414Z,19.10
2018-07-27T05:59:51.925Z,19.20
2018-07-27T06:04:50.135Z,19.40
2018-07-27T06:09:49.185Z,19.60
2018-07-27T06:12:18.431Z,19.60
2018-07-27T06:17:18.441Z,19.90
2018-07-27T06:19:47.817Z,20.00
2018-07-27T06:22:17.067Z,20.10
2018-07-27T06:24:50.946Z,20.30
2018-07-27T06:27:22.621Z,20.40
2018-07-27T06:29:52.288Z,20.60
2018-07-27T06:32:22.477Z,20.70
2018-07-27T06:34:51.756Z,20.90
2018-07-27T06:37:21.003Z,21.00
2018-07-27T06:39:50.422Z,21.10
2018-07-27T06:42:19.618Z,21.30
2018-07-27T06:44:48.862Z,21.50
2018-07-27T06:47:19.536Z,21.60
2018-07-27T06:49:48.781Z,21.80
2018-07-27T06:52:17.984Z,21.90
2018-07-27T06:54:47.270Z,22.00
2018-07-27T06:57:16.498Z,22.20
2018-07-27T06:59:45.814Z,22.30
2018-07-27T07:02:16.721Z,22.40
2018-07-27T07:04:45.952Z,22.50
2018-07-27T07:07:15.192Z,22.60
2018-07-27T07:09:44.527Z,22.80
2018-07-27T07:12:13.718Z,22.90
2018-07-27T07:14:42.908Z,22.90
2018-07-27T07:17:13.041Z,23.00
2018-07-27T07:19:42.254Z,23.10
2018-07-27T07:22:11.442Z,23.20
2018-07-27T07:24:40.623Z,23.30
2018-07-27T07:27:09.876Z,23.40
2018-07-27T07:29:39.388Z,23.50
2018-07-27T07:32:08.717Z,23.60
2018-07-27T07:34:37.922Z,23.80
2018-07-27T07:37:07.185Z,23.90
2018-07-27T07:39:37.657Z,24.00
2018-07-27T07:42:07.010Z,24.10
2018-07-27T07:44:36.227Z,24.20
2018-07-27T07:47:06.343Z,24.30
2018-07-27T07:49:35.772Z,24.50
2018-07-27T07:52:05.141Z,24.50
2018-07-27T07:54:34.456Z,24.50
2018-07-27T07:57:03.956Z,24.60
2018-07-27T07:59:33.356Z,24.70
2018-07-27T08:02:02.605Z,24.70
2018-07-27T08:04:31.978Z,24.80
2018-07-27T08:07:02.204Z,24.80
2018-07-27T08:09:31.693Z,24.90
2018-07-27T08:12:02.487Z,25.00
2018-07-27T08:14:31.697Z,25.10
2018-07-27T08:17:00.956Z,25.20
2018-07-27T08:19:30.145Z,25.30
2018-07-27T08:21:59.378Z,25.30
2018-07-27T08:24:28.591Z,25.40
2018-07-27T08:27:00.895Z,25.50
2018-07-27T08:29:38.178Z,25.70
2018-07-27T08:32:07.655Z,25.80
2018-07-27T08:34:36.981Z,25.90
2018-07-27T08:37:06.611Z,26.10
2018-07-27T08:39:48.706Z,26.30
2018-07-27T08:42:19.421Z,26.40
2018-07-27T08:47:22.491Z,26.70
2018-07-27T08:49:52.754Z,26.80
2018-07-27T08:52:21.946Z,27.00
2018-07-27T08:54:51.214Z,27.20
2018-07-27T08:57:20.443Z,27.30
2018-07-27T08:59:49.949Z,27.50
2018-07-27T09:02:21.209Z,27.50
2018-07-27T09:04:50.395Z,27.70
2018-07-27T09:07:19.693Z,27.90
2018-07-27T09:09:49.010Z,27.90
2018-07-27T09:12:18.289Z,27.90
2018-07-27T09:14:48.305Z,28.10
2018-07-27T09:17:19.448Z,28.10
2018-07-27T09:19:48.855Z,28.30
2018-07-27T09:22:18.051Z,28.40
2018-07-27T09:24:47.303Z,28.50
2018-07-27T09:27:16.642Z,28.60
2018-07-27T09:29:45.959Z,28.60
2018-07-27T09:32:16.833Z,28.60
2018-07-27T09:34:46.263Z,28.70
2018-07-27T09:37:15.534Z,28.70
2018-07-27T09:39:44.966Z,28.70
2018-07-27T09:42:14.229Z,28.70
2018-07-27T09:44:43.482Z,28.80
2018-07-27T09:47:13.232Z,28.90
2018-07-27T09:49:42.499Z,29.00
2018-07-27T09:52:26.281Z,29.00
2018-07-27T09:54:56.992Z,29.00
2018-07-27T09:57:26.206Z,29.00
2018-07-27T09:59:55.475Z,29.00
2018-07-27T10:02:26.214Z,29.10
2018-07-27T10:04:55.417Z,29.10
2018-07-27T10:07:24.618Z,29.20
2018-07-27T10:09:53.898Z,29.20
2018-07-27T10:12:23.114Z,29.20
2018-07-27T10:14:52.331Z,29.20
2018-07-27T10:17:23.360Z,29.30
2018-07-27T10:19:52.770Z,29.40
2018-07-27T10:22:21.994Z,29.50
2018-07-27T10:24:51.250Z,29.60
2018-07-27T10:27:20.527Z,29.70
2018-07-27T10:29:49.992Z,29.50
2018-07-27T10:32:21.550Z,29.50
2018-07-27T10:34:50.720Z,29.60
2018-07-27T10:37:20.124Z,29.70
2018-07-27T10:39:49.814Z,29.80
2018-07-27T10:42:19.276Z,29.80
2018-07-27T10:44:48.537Z,29.80
2018-07-27T10:47:19.928Z,29.90
2018-07-27T10:49:49.233Z,29.90
2018-07-27T10:52:18.581Z,29.80
2018-07-27T10:54:47.922Z,29.90
2018-07-27T10:57:17.142Z,30.00
2018-07-27T10:59:47.159Z,29.90
2018-07-27T11:02:18.203Z,29.80
2018-07-27T11:04:47.447Z,29.90
2018-07-27T11:07:16.655Z,30.10
2018-07-27T11:09:45.938Z,30.30
2018-07-27T11:12:15.185Z,30.50
2018-07-27T11:14:44.408Z,30.60
2018-07-27T11:17:14.580Z,30.60
2018-07-27T11:19:43.925Z,30.60
2018-07-27T11:22:13.127Z,30.70
2018-07-27T11:24:42.401Z,30.80
2018-07-27T11:27:11.612Z,30.80
2018-07-27T11:29:40.941Z,30.80
2018-07-27T11:32:10.211Z,30.90
2018-07-27T11:34:39.440Z,31.00
2018-07-27T11:37:08.740Z,30.80
2018-07-27T11:39:37.949Z,30.60
2018-07-27T11:42:07.337Z,30.50
2018-07-27T11:44:36.580Z,30.60
2018-07-27T11:47:06.114Z,30.70
2018-07-27T11:49:35.520Z,31.00
2018-07-27T11:52:04.899Z,31.20
2018-07-27T11:54:34.959Z,31.30
2018-07-27T11:57:04.172Z,31.30
2018-07-27T11:59:33.541Z,31.10
2018-07-27T12:02:02.795Z,31.00
2018-07-27T12:04:31.985Z,30.90
2018-07-27T12:07:01.352Z,30.90
2018-07-27T12:09:30.515Z,30.90
2018-07-27T12:11:59.889Z,31.20
2018-07-27T12:14:29.273Z,31.50
2018-07-27T12:16:58.356Z,31.70
2018-07-27T12:19:27.901Z,31.80
2018-07-27T12:21:57.141Z,31.90
2018-07-27T12:24:26.401Z,32.00
2018-07-27T12:26:55.627Z,31.90
2018-07-27T12:29:25.040Z,31.70
2018-07-27T12:31:54.192Z,31.50
2018-07-27T12:34:23.432Z,31.40
2018-07-27T12:36:52.657Z,31.50
2018-07-27T12:39:21.811Z,31.70
2018-07-27T12:41:51.051Z,31.80
2018-07-27T12:44:20.228Z,32.00
2018-07-27T12:46:49.425Z,32.10
2018-07-27T12:49:18.627Z,32.40
2018-07-27T12:51:48.018Z,32.50
2018-07-27T12:54:17.344Z,32.70
2018-07-27T12:56:46.625Z,32.90
2018-07-27T12:59:16.063Z,33.10
2018-07-27T13:01:45.299Z,33.20
2018-07-27T13:04:14.736Z,33.40
2018-07-27T13:09:13.550Z,33.70
2018-07-27T13:11:42.793Z,33.70
2018-07-27T13:14:11.988Z,33.70
2018-07-27T13:16:41.364Z,33.80
2018-07-27T13:19:13.479Z,34.00
2018-07-27T13:21:43.277Z,34.30
2018-07-27T13:24:12.474Z,34.50
2018-07-27T13:26:41.718Z,34.60
2018-07-27T13:29:11.048Z,34.60
2018-07-27T13:34:43.270Z,34.30
2018-07-27T13:37:12.834Z,34.00
2018-07-27T13:39:43.002Z,34.10
2018-07-27T13:42:13.288Z,35.20
2018-07-27T13:44:42.994Z,36.70
2018-07-27T13:49:42.925Z,39.70
2018-07-27T13:52:12.538Z,40.60
2018-07-27T13:54:41.794Z,40.20
2018-07-27T13:57:11.481Z,39.80
2018-07-27T13:59:40.693Z,40.10
2018-07-27T14:02:10.359Z,41.40
2018-07-27T14:04:39.646Z,41.20
2018-07-27T14:07:09.728Z,40.90
2018-07-27T14:09:38.999Z,41.80
2018-07-27T14:12:08.210Z,42.80
2018-07-27T14:14:37.429Z,43.60
2018-07-27T14:17:06.867Z,43.40
2018-07-27T14:19:36.237Z,41.80
2018-07-27T14:22:05.566Z,40.50
2018-07-27T14:24:34.820Z,39.40
2018-07-27T14:27:04.117Z,37.80
2018-07-27T14:29:33.363Z,36.50
2018-07-27T14:32:02.553Z,36.40
2018-07-27T14:34:31.744Z,37.00
2018-07-27T14:37:01.388Z,36.70
2018-07-27T14:39:31.524Z,36.00
2018-07-27T14:42:00.725Z,35.50
2018-07-27T14:44:30.019Z,35.20
2018-07-27T14:46:59.169Z,35.00
2018-07-27T14:49:29.447Z,34.70
2018-07-27T14:51:58.813Z,34.40
2018-07-27T14:54:29.184Z,34.10
2018-07-27T14:56:58.582Z,33.80
2018-07-27T14:59:27.892Z,33.70
2018-07-27T15:01:57.104Z,33.50
2018-07-27T15:04:26.357Z,33.30
2018-07-27T15:06:55.571Z,33.10
2018-07-27T15:09:24.825Z,33.00
2018-07-27T15:11:54.047Z,33.00
2018-07-27T15:14:23.600Z,32.90
2018-07-27T15:16:52.812Z,32.80
2018-07-27T15:19:23.086Z,32.70
2018-07-27T15:21:52.297Z,32.70
2018-07-27T15:24:21.876Z,32.60
2018-07-27T15:26:51.040Z,32.60
2018-07-27T15:29:21.245Z,32.70
2018-07-27T15:31:50.481Z,32.70
2018-07-27T15:36:48.443Z,32.70
2018-07-27T15:39:18.656Z,32.70
2018-07-27T15:41:49.470Z,32.60
2018-07-27T15:44:18.720Z,32.60
2018-07-27T15:46:47.937Z,32.60
2018-07-27T15:49:17.845Z,32.70
2018-07-27T15:51:47.145Z,32.60
2018-07-27T15:54:16.341Z,32.70
2018-07-27T15:56:45.557Z,32.70
2018-07-27T15:59:14.961Z,32.80
2018-07-27T16:01:44.530Z,32.90
2018-07-27T16:04:13.728Z,33.80
2018-07-27T16:06:42.998Z,34.90
2018-07-27T16:09:12.390Z,35.40
2018-07-27T16:11:41.679Z,35.20
2018-07-27T16:14:10.891Z,35.00
2018-07-27T16:16:40.051Z,34.70
2018-07-27T16:19:10.344Z,34.20
2018-07-27T16:21:39.568Z,33.90
2018-07-27T16:24:08.854Z,34.40
2018-07-27T16:26:38.057Z,35.80
2018-07-27T16:29:07.408Z,36.60
2018-07-27T16:31:36.635Z,36.50
2018-07-27T16:34:06.131Z,36.00
2018-07-27T16:36:35.443Z,36.10
2018-07-27T16:39:07.764Z,36.20
2018-07-27T16:41:37.014Z,35.90
2018-07-27T16:44:06.600Z,35.60
2018-07-27T16:46:35.961Z,35.10
2018-07-27T16:49:05.689Z,34.60
2018-07-27T16:51:35.087Z,34.30
2018-07-27T16:54:04.703Z,33.90
2018-07-27T16:56:33.963Z,33.60
2018-07-27T16:59:03.302Z,33.20
2018-07-27T17:01:32.508Z,33.00
2018-07-27T17:04:01.949Z,33.00
2018-07-27T17:06:31.168Z,33.00
2018-07-27T17:09:00.502Z,33.70
2018-07-27T17:11:29.702Z,33.70
2018-07-27T17:13:58.980Z,33.80
2018-07-27T17:16:28.215Z,34.00
2018-07-27T17:18:58.582Z,33.90
2018-07-27T17:21:29.342Z,33.60
2018-07-27T17:23:58.747Z,33.90
2018-07-27T17:26:28.784Z,34.20
2018-07-27T17:28:58.947Z,34.10
2018-07-27T17:31:28.668Z,33.70
2018-07-27T17:33:57.938Z,33.40
2018-07-27T17:36:27.312Z,33.00
2018-07-27T17:38:56.754Z,32.70
2018-07-27T17:41:26.036Z,32.30
2018-07-27T17:43:55.357Z,31.90
2018-07-27T17:46:25.558Z,31.50
2018-07-27T17:48:55.121Z,31.20
2018-07-27T17:53:54.096Z,30.70
2018-07-27T17:56:23.383Z,30.40
2018-07-27T17:58:52.875Z,30.20
2018-07-27T18:01:22.351Z,30.00
2018-07-27T18:03:54.293Z,29.80
2018-07-27T18:06:23.543Z,29.30
2018-07-27T18:08:53.064Z,28.90
2018-07-27T18:11:22.528Z,28.70
2018-07-27T18:13:51.766Z,28.60
2018-07-27T18:16:21.109Z,28.30
2018-07-27T18:18:50.390Z,28.10
2018-07-27T18:21:20.087Z,28.00
2018-07-27T18:23:49.561Z,27.80
2018-07-27T18:26:19.210Z,27.80
2018-07-27T18:28:49.135Z,27.70
2018-07-27T18:31:20.374Z,27.60
2018-07-27T18:33:49.633Z,27.50
2018-07-27T18:36:19.700Z,27.30
2018-07-27T18:38:49.099Z,27.10
2018-07-27T18:41:18.412Z,26.80
2018-07-27T18:43:47.671Z,26.40
2018-07-27T18:46:16.994Z,26.30
2018-07-27T18:48:46.250Z,26.20
2018-07-27T18:51:15.474Z,26.10
2018-07-27T18:53:45.019Z,25.90
2018-07-27T18:58:43.733Z,25.40
2018-07-27T19:01:13.618Z,25.30
2018-07-27T19:03:43.537Z,25.20
2018-07-27T19:06:12.839Z,25.00
2018-07-27T19:08:42.689Z,24.90
2018-07-27T19:11:12.289Z,24.80
2018-07-27T19:13:41.724Z,24.70
2018-07-27T19:16:11.360Z,24.60
2018-07-27T19:18:41.545Z,24.30
2018-07-27T19:21:10.965Z,24.30
2018-07-27T19:23:40.509Z,24.20
2018-07-27T19:28:38.809Z,24.00
2018-07-27T19:31:08.374Z,24.00
2018-07-27T19:33:37.612Z,24.00
2018-07-27T19:36:07.716Z,24.00
2018-07-27T19:38:37.083Z,23.80
2018-07-27T19:41:07.460Z,23.60
2018-07-27T19:43:36.696Z,23.50
2018-07-27T19:46:05.956Z,23.40
2018-07-27T19:48:35.407Z,23.30
2018-07-27T19:51:04.790Z,23.20
2018-07-27T19:53:34.024Z,23.10
2018-07-27T19:56:03.317Z,23.10
2018-07-27T19:58:32.582Z,23.10
2018-07-27T20:01:01.834Z,23.10
2018-07-27T20:03:31.062Z,23.10
2018-07-27T20:06:00.299Z,23.10
2018-07-27T20:08:29.573Z,23.10
2018-07-27T20:10:58.861Z,23.10
2018-07-27T20:13:28.215Z,23.20
2018-07-27T20:15:57.567Z,23.10
2018-07-27T20:18:27.026Z,23.00
2018-07-27T20:20:56.977Z,22.80
2018-07-27T20:23:27.034Z,22.70
2018-07-27T20:25:56.505Z,22.50
2018-07-27T20:28:25.962Z,22.50
2018-07-27T20:30:56.181Z,22.40
2018-07-27T20:33:25.537Z,22.40
2018-07-27T20:35:55.508Z,22.40
2018-07-27T20:38:25.042Z,22.40
2018-07-27T20:40:54.380Z,22.40
2018-07-27T20:43:24.055Z,22.30
2018-07-27T20:45:54.354Z,22.20
2018-07-27T20:48:24.411Z,22.20
2018-07-27T20:50:54.009Z,22.10
2018-07-27T20:53:23.278Z,22.00
2018-07-27T20:55:52.506Z,21.80
2018-07-27T20:58:25.084Z,21.70
2018-07-27T21:00:55.384Z,21.50
2018-07-27T21:03:24.997Z,21.40
2018-07-27T21:05:54.218Z,21.40
2018-07-27T21:08:23.726Z,21.40
2018-07-27T21:10:57.717Z,21.40
2018-07-27T21:13:28.043Z,21.40
2018-07-27T21:15:58.260Z,21.40
2018-07-27T21:18:33.329Z,21.30
2018-07-27T21:21:02.735Z,21.30
2018-07-27T21:23:32.078Z,21.20
2018-07-27T21:26:01.476Z,21.10
2018-07-27T21:28:31.342Z,21.00
2018-07-27T21:31:00.875Z,21.00
2018-07-27T21:33:30.141Z,20.90
2018-07-27T21:35:59.374Z,20.80
2018-07-27T21:38:29.427Z,20.90
2018-07-27T21:40:59.625Z,20.80
2018-07-27T21:43:29.557Z,20.90
2018-07-27T21:45:58.811Z,20.90
2018-07-27T21:48:28.117Z,20.90
2018-07-27T21:50:57.380Z,20.80
2018-07-27T21:53:26.878Z,20.70
2018-07-27T21:55:56.209Z,20.70
2018-07-27T21:58:25.655Z,20.60
2018-07-27T22:00:55.336Z,20.60
2018-07-27T22:03:24.698Z,20.60
2018-07-27T22:05:54.052Z,20.60
2018-07-27T22:08:23.559Z,20.60
2018-07-27T22:10:52.812Z,20.60
2018-07-27T22:13:22.148Z,20.60
2018-07-27T22:15:52.036Z,20.60
2018-07-27T22:18:21.656Z,20.60
2018-07-27T22:20:50.847Z,20.50
2018-07-27T22:23:20.119Z,20.40
2018-07-27T22:25:49.351Z,20.40
2018-07-27T22:28:18.675Z,20.30
2018-07-27T22:30:48.222Z,20.20
2018-07-27T22:33:18.179Z,20.10
2018-07-27T22:35:47.556Z,20.10
2018-07-27T22:38:16.971Z,20.20
2018-07-27T22:40:46.330Z,20.10
2018-07-27T22:43:16.244Z,20.10
2018-07-27T22:45:45.459Z,20.00
2018-07-27T22:48:15.120Z,20.00
2018-07-27T22:50:44.357Z,19.90
2018-07-27T22:53:13.602Z,19.90
2018-07-27T22:55:42.845Z,19.90
2018-07-27T22:58:12.165Z,19.90
2018-07-27T23:00:41.394Z,20.00
2018-07-27T23:03:10.867Z,19.80
2018-07-27T23:05:40.091Z,19.70
2018-07-27T23:08:10.437Z,19.60
2018-07-27T23:10:39.683Z,19.60
2018-07-27T23:13:08.963Z,19.60
2018-07-27T23:15:38.240Z,19.50
2018-07-27T23:18:07.746Z,19.50
2018-07-27T23:20:36.946Z,19.50
2018-07-27T23:23:06.739Z,19.50
2018-07-27T23:25:38.145Z,19.60
2018-07-27T23:28:08.171Z,19.60
2018-07-27T23:30:37.822Z,19.40
2018-07-27T23:33:07.031Z,19.30
2018-07-27T23:35:36.303Z,19.10
2018-07-27T23:38:06.103Z,19.00
2018-07-27T23:40:35.352Z,18.90
2018-07-27T23:43:04.640Z,18.90
2018-07-27T23:45:33.884Z,18.90
2018-07-27T23:48:03.322Z,19.00
2018-07-27T23:50:32.639Z,19.00
2018-07-27T23:53:02.653Z,19.00
2018-07-27T23:55:31.901Z,19.00
2018-07-27T23:58:01.354Z,19.00
